Time;durP1;ratioP1;P1;durP2;ratioP2;P2;SDS_P1;SDS_P2;PMS_P1;PMS_P2;Temp;Humidity;BMP_temperature;BMP_pressure;BME280_temperature;BME280_humidity;BME280_pressure;Samples;Min_cycle;Max_cycle;Signal;HPM_P1;HPM_P2
2021/03/16 00:00:10;;;;;;;7.75;2.67;;;4.40;99.90;;;;;;4902642;29;20084;-88
2021/03/16 00:02:36;;;;;;;7.85;2.80;;;4.50;99.90;;;;;;4902554;29;20496;-89
2021/03/16 00:05:03;;;;;;;7.50;2.80;;;4.60;99.90;;;;;;4902650;29;20028;-89
2021/03/16 00:07:28;;;;;;;6.43;2.65;;;4.50;99.90;;;;;;4902484;29;20032;-89
2021/03/16 00:09:54;;;;;;;5.82;2.90;;;4.40;99.90;;;;;;4902568;29;20043;-89
2021/03/16 00:12:20;;;;;;;6.03;3.13;;;4.30;99.90;;;;;;4902438;29;20080;-89
2021/03/16 00:14:46;;;;;;;10.95;3.28;;;4.30;99.90;;;;;;4902425;29;20028;-89
2021/03/16 00:17:12;;;;;;;8.52;3.13;;;4.40;99.90;;;;;;4902407;29;20136;-90
2021/03/16 00:19:37;;;;;;;13.70;3.53;;;4.30;99.90;;;;;;4902429;29;20024;-89
2021/03/16 00:22:03;;;;;;;6.75;3.22;;;4.30;99.90;;;;;;4902308;29;20024;-89
2021/03/16 00:24:30;;;;;;;6.63;2.72;;;4.40;99.90;;;;;;4902274;29;20024;-89
2021/03/16 00:26:56;;;;;;;10.68;3.28;;;4.40;99.90;;;;;;4919082;29;20488;-89
2021/03/16 00:29:22;;;;;;;8.52;3.38;;;4.40;99.90;;;;;;4901962;29;20480;-89
2021/03/16 00:31:47;;;;;;;8.20;3.45;;;4.30;99.90;;;;;;4902182;29;20061;-89
2021/03/16 00:34:13;;;;;;;8.30;2.72;;;4.40;99.90;;;;;;4902148;29;20433;-89
2021/03/16 00:36:39;;;;;;;10.20;3.20;;;4.40;99.90;;;;;;4919412;29;20028;-91
2021/03/16 00:39:05;;;;;;;6.90;3.05;;;4.40;99.90;;;;;;4902037;29;20031;-89
2021/03/16 00:41:31;;;;;;;10.80;3.13;;;4.50;99.90;;;;;;4919279;29;20020;-90
2021/03/16 00:43:57;;;;;;;7.22;2.70;;;4.60;99.90;;;;;;4902175;29;20430;-90
2021/03/16 00:46:22;;;;;;;6.93;2.80;;;4.60;99.90;;;;;;4901779;29;20055;-90
2021/03/16 00:48:48;;;;;;;4.45;2.47;;;4.50;99.90;;;;;;4918322;29;20028;-90
2021/03/16 00:51:14;;;;;;;13.73;3.55;;;4.70;99.90;;;;;;4901875;29;20114;-90
2021/03/16 00:53:40;;;;;;;8.63;2.83;;;4.70;99.90;;;;;;4901771;29;20024;-90
2021/03/16 00:56:06;;;;;;;4.78;2.90;;;4.70;99.90;;;;;;4901711;29;20059;-90
2021/03/16 00:58:31;;;;;;;8.20;2.80;;;4.70;99.90;;;;;;4901663;29;20460;-90
2021/03/16 01:00:58;;;;;;;7.95;2.72;;;4.60;99.90;;;;;;4901867;29;20051;-90
2021/03/16 01:03:24;;;;;;;6.43;2.60;;;4.60;99.90;;;;;;4901675;29;20051;-90
2021/03/16 01:05:52;;;;;;;7.88;2.88;;;4.40;99.90;;;;;;4901631;29;20028;-89
2021/03/16 01:08:19;;;;;;;11.82;3.40;;;4.50;99.90;;;;;;4901719;29;20551;-89
2021/03/16 01:10:45;;;;;;;10.75;3.00;;;4.30;99.90;;;;;;4901574;29;20032;-89
2021/03/16 01:13:11;;;;;;;7.35;2.95;;;4.30;99.90;;;;;;4901479;29;20437;-90
2021/03/16 01:15:37;;;;;;;8.23;2.88;;;4.30;99.90;;;;;;4901443;29;20165;-89
2021/03/16 01:18:03;;;;;;;6.45;2.78;;;4.30;99.90;;;;;;4918537;29;20039;-90
2021/03/16 01:20:29;;;;;;;11.27;3.17;;;4.20;99.90;;;;;;4901368;29;20028;-89
2021/03/16 01:22:55;;;;;;;7.30;3.10;;;4.30;99.90;;;;;;4901196;29;20028;-90
2021/03/16 01:25:21;;;;;;;8.50;2.75;;;4.40;99.90;;;;;;4901309;29;20035;-89
2021/03/16 01:27:47;;;;;;;9.52;3.22;;;4.40;99.90;;;;;;4902324;29;20364;-90
2021/03/16 01:30:14;;;;;;;10.52;3.30;;;4.50;99.90;;;;;;4901246;29;20488;-89
2021/03/16 01:32:40;;;;;;;10.68;3.00;;;4.40;99.90;;;;;;4901109;29;20488;-90
2021/03/16 01:35:09;;;;;;;6.13;2.75;;;4.50;99.90;;;;;;4901238;29;20039;-89
2021/03/16 01:37:35;;;;;;;4.88;2.40;;;4.50;99.90;;;;;;4900951;29;20075;-90
2021/03/16 01:40:05;;;;;;;9.55;3.00;;;4.60;99.90;;;;;;4901120;29;20366;-90
2021/03/16 01:42:30;;;;;;;5.30;2.72;;;4.60;99.90;;;;;;4901367;29;20047;-90
2021/03/16 01:44:56;;;;;;;6.55;3.00;;;4.50;99.90;;;;;;4901073;29;20508;-89
2021/03/16 01:47:22;;;;;;;6.63;2.70;;;4.50;99.90;;;;;;4901124;29;20036;-90
2021/03/16 01:49:48;;;;;;;13.25;3.45;;;4.50;99.90;;;;;;4900998;29;20539;-90
2021/03/16 01:52:14;;;;;;;6.50;2.80;;;4.40;99.90;;;;;;4900697;29;20032;-90
2021/03/16 01:54:41;;;;;;;8.93;3.08;;;4.40;99.90;;;;;;4917526;29;20115;-90
2021/03/16 01:57:08;;;;;;;11.90;3.10;;;4.20;99.90;;;;;;4900824;29;20036;-90
2021/03/16 01:59:34;;;;;;;5.40;2.97;;;4.20;99.90;;;;;;4901135;29;20024;-89
2021/03/16 02:02:01;;;;;;;11.00;2.95;;;4.10;99.90;;;;;;4917655;29;20027;-89
2021/03/16 02:04:27;;;;;;;8.88;3.08;;;4.10;99.90;;;;;;4900749;29;20025;-90
2021/03/16 02:06:55;;;;;;;6.60;2.72;;;4.20;99.90;;;;;;4900801;29;20020;-91
2021/03/16 02:09:36;;;;;;;7.10;3.13;;;4.30;99.90;;;;;;4900684;29;20032;-89
2021/03/16 02:12:17;;;;;;;6.88;2.58;;;4.20;99.90;;;;;;4900849;29;20155;-90
2021/03/16 02:14:48;;;;;;;6.22;3.00;;;4.20;99.90;;;;;;4901505;29;20364;-89
2021/03/16 02:17:29;;;;;;;6.43;2.67;;;4.30;99.90;;;;;;4900627;29;20123;-90
2021/03/16 02:20:24;;;;;;;9.63;3.30;;;4.40;99.90;;;;;;4900733;29;20056;-89
2021/03/16 02:22:52;;;;;;;8.45;3.00;;;4.30;99.90;;;;;;4900991;29;20031;-90
2021/03/16 02:25:55;;;;;;;5.78;2.80;;;4.30;99.90;;;;;;4900534;29;20115;-90
2021/03/16 02:28:34;;;;;;;10.05;2.90;;;4.40;99.90;;;;;;4900689;29;20068;-91
2021/03/16 02:31:02;;;;;;;6.95;3.13;;;4.40;99.90;;;;;;4900505;29;20031;-90
2021/03/16 02:33:32;;;;;;;6.75;2.65;;;4.50;99.90;;;;;;4917657;29;20100;-90
2021/03/16 02:36:01;;;;;;;6.95;2.65;;;4.40;99.90;;;;;;4917715;29;20035;-90
2021/03/16 02:38:31;;;;;;;10.50;3.28;;;4.40;99.90;;;;;;4900248;29;20028;-90
2021/03/16 02:40:59;;;;;;;12.00;3.03;;;4.40;99.90;;;;;;4900449;29;20039;-90
2021/03/16 02:43:26;;;;;;;10.68;3.28;;;4.40;99.90;;;;;;4917500;29;20421;-90
2021/03/16 02:45:53;;;;;;;13.05;3.30;;;4.40;99.90;;;;;;4900348;29;20024;-90
2021/03/16 02:48:21;;;;;;;7.53;3.20;;;4.30;99.90;;;;;;4900357;29;20028;-89
2021/03/16 02:50:48;;;;;;;12.48;3.30;;;4.20;99.90;;;;;;4900290;29;20036;-88
2021/03/16 02:53:15;;;;;;;12.40;3.67;;;3.90;99.90;;;;;;4900375;29;20028;-89
2021/03/16 02:55:43;;;;;;;7.05;3.20;;;3.90;99.90;;;;;;4900174;29;20103;-88
2021/03/16 02:58:10;;;;;;;16.10;3.72;;;4.00;99.90;;;;;;4900073;29;20084;-89
2021/03/16 03:00:38;;;;;;;7.22;3.20;;;3.70;99.90;;;;;;4900180;29;20385;-89
2021/03/16 03:03:04;;;;;;;6.35;3.15;;;3.70;99.90;;;;;;4900214;29;20389;-89
2021/03/16 03:05:32;;;;;;;7.63;3.05;;;3.80;99.90;;;;;;4900281;29;20036;-90
2021/03/16 03:07:58;;;;;;;9.73;3.53;;;3.90;99.90;;;;;;4900248;29;20028;-90
2021/03/16 03:10:24;;;;;;;6.88;3.25;;;4.00;99.90;;;;;;4917047;29;20039;-89
2021/03/16 03:12:53;;;;;;;12.63;3.40;;;4.00;99.90;;;;;;4919698;29;20396;-89
2021/03/16 03:15:19;;;;;;;6.53;2.70;;;4.10;99.90;;;;;;4903540;29;20036;-89
2021/03/16 03:17:46;;;;;;;8.32;2.67;;;4.10;99.90;;;;;;4903685;29;20083;-90
2021/03/16 03:20:13;;;;;;;8.60;3.00;;;4.10;99.90;;;;;;4903580;29;20031;-89
2021/03/16 03:23:02;;;;;;;9.23;2.85;;;4.10;99.90;;;;;;4920336;29;20103;-89
2021/03/16 03:25:37;;;;;;;11.18;3.35;;;4.00;99.90;;;;;;4903428;29;20032;-90
2021/03/16 03:28:16;;;;;;;6.20;3.05;;;4.00;99.90;;;;;;4903469;29;20035;-90
2021/03/16 03:30:43;;;;;;;11.25;3.13;;;4.10;99.90;;;;;;4903315;29;20028;-89
2021/03/16 03:33:11;;;;;;;9.20;2.70;;;4.10;99.90;;;;;;4903150;29;20032;-90
2021/03/16 03:35:38;;;;;;;12.10;2.80;;;4.00;99.90;;;;;;4920229;29;20035;-89
2021/03/16 03:38:05;;;;;;;9.50;2.80;;;4.10;99.90;;;;;;4903086;29;20121;-89
2021/03/16 03:40:32;;;;;;;6.70;2.42;;;4.10;99.90;;;;;;4903148;29;20160;-90
2021/03/16 03:43:01;;;;;;;7.80;2.85;;;4.10;99.90;;;;;;4903825;29;20114;-90
2021/03/16 03:45:28;;;;;;;10.27;2.80;;;3.90;99.90;;;;;;4903360;29;20031;-90
2021/03/16 03:47:58;;;;;;;8.40;2.40;;;4.00;99.90;;;;;;4903067;29;20032;-89
2021/03/16 03:50:25;;;;;;;12.98;2.78;;;4.10;99.90;;;;;;4902967;29;20396;-90
2021/03/16 03:52:53;;;;;;;8.32;2.72;;;4.10;99.90;;;;;;4903066;29;20032;-90
2021/03/16 03:55:21;;;;;;;9.63;2.78;;;4.20;99.90;;;;;;4902761;29;20107;-90
2021/03/16 03:57:50;;;;;;;5.88;2.50;;;4.10;99.90;;;;;;4902886;29;20064;-89
2021/03/16 04:00:17;;;;;;;6.10;2.60;;;4.00;99.90;;;;;;4902820;29;20055;-89
2021/03/16 04:02:44;;;;;;;11.00;2.83;;;4.00;99.90;;;;;;4902906;29;20507;-90
2021/03/16 04:05:13;;;;;;;14.15;2.78;;;4.00;99.90;;;;;;4902737;29;20034;-90
2021/03/16 04:07:40;;;;;;;12.18;2.50;;;4.10;99.90;;;;;;4902755;29;20032;-90
2021/03/16 04:10:11;;;;;;;8.93;3.13;;;4.20;99.90;;;;;;4902864;29;20032;-90
2021/03/16 04:12:38;;;;;;;10.20;2.40;;;4.20;99.90;;;;;;4902684;29;20030;-89
2021/03/16 04:15:11;;;;;;;8.98;2.40;;;4.20;99.90;;;;;;4902555;29;20032;-90
2021/03/16 04:17:37;;;;;;;10.80;2.42;;;4.10;99.90;;;;;;4919783;29;20035;-89
2021/03/16 04:20:05;;;;;;;14.05;2.45;;;4.10;99.90;;;;;;4902504;29;20024;-89
2021/03/16 04:22:31;;;;;;;9.75;2.45;;;4.00;99.90;;;;;;4902222;29;20047;-89
2021/03/16 04:24:57;;;;;;;10.02;2.10;;;4.00;99.90;;;;;;4918875;29;20058;-90
2021/03/16 04:27:24;;;;;;;10.75;2.58;;;4.00;99.90;;;;;;4902287;29;20052;-90
2021/03/16 04:29:51;;;;;;;7.47;2.80;;;3.90;99.90;;;;;;4902279;29;20028;-90
2021/03/16 04:32:17;;;;;;;8.38;2.30;;;4.00;99.90;;;;;;4919140;29;20024;-90
2021/03/16 04:34:43;;;;;;;9.80;2.28;;;4.00;99.90;;;;;;4902162;29;20032;-89
2021/03/16 04:37:09;;;;;;;6.88;2.22;;;4.00;99.90;;;;;;4902134;29;20400;-89
2021/03/16 04:39:34;;;;;;;11.43;2.70;;;4.10;99.90;;;;;;4902185;29;20032;-89
2021/03/16 04:42:00;;;;;;;11.80;3.25;;;4.10;99.90;;;;;;4901798;29;20063;-89
2021/03/16 04:44:26;;;;;;;12.65;2.58;;;4.10;99.90;;;;;;4902063;29;20021;-90
2021/03/16 04:46:51;;;;;;;8.30;2.85;;;4.10;99.90;;;;;;4902697;29;20472;-89
2021/03/16 04:49:17;;;;;;;8.50;2.20;;;4.00;99.90;;;;;;4901888;29;20064;-90
2021/03/16 04:51:43;;;;;;;8.40;2.10;;;4.00;99.90;;;;;;4901794;29;20108;-88
2021/03/16 04:54:09;;;;;;;12.70;3.17;;;3.90;99.90;;;;;;4901583;29;20024;-90
2021/03/16 04:56:35;;;;;;;8.98;2.35;;;4.00;99.90;;;;;;4902037;29;20028;-89
2021/03/16 04:59:01;;;;;;;6.45;2.03;;;3.90;99.90;;;;;;4901607;29;20035;-89
2021/03/16 05:01:27;;;;;;;8.75;2.20;;;3.90;99.90;;;;;;4918761;29;20056;-89
2021/03/16 05:03:53;;;;;;;5.03;1.92;;;4.00;99.90;;;;;;4918615;29;20020;-89
2021/03/16 05:06:19;;;;;;;9.15;2.42;;;4.00;99.90;;;;;;4918556;29;20063;-89
2021/03/16 05:08:44;;;;;;;10.23;2.10;;;3.90;99.90;;;;;;4901568;29;20058;-89
2021/03/16 05:11:10;;;;;;;10.50;2.22;;;3.90;99.90;;;;;;4901672;29;20028;-89
2021/03/16 05:13:36;;;;;;;11.40;2.55;;;3.90;99.90;;;;;;4918375;29;20040;-89
2021/03/16 05:16:02;;;;;;;7.53;2.33;;;3.90;99.90;;;;;;4901654;29;20035;-89
2021/03/16 05:18:28;;;;;;;8.27;2.70;;;3.80;99.90;;;;;;4918453;29;20024;-89
2021/03/16 05:20:54;;;;;;;15.18;3.72;;;3.70;99.90;;;;;;4901720;29;20028;-89
2021/03/16 05:23:20;;;;;;;6.18;2.67;;;3.80;99.90;;;;;;4901272;29;20035;-89
2021/03/16 05:25:47;;;;;;;11.57;2.83;;;3.80;99.90;;;;;;4901380;29;20083;-89
2021/03/16 05:28:12;;;;;;;10.30;3.30;;;4.00;99.90;;;;;;4901236;29;20032;-90
2021/03/16 05:30:38;;;;;;;11.25;2.50;;;3.90;99.90;;;;;;4901487;29;20443;-90
2021/03/16 05:33:04;;;;;;;7.90;2.35;;;3.80;99.90;;;;;;4901332;29;20048;-90
2021/03/16 05:35:30;;;;;;;9.80;2.30;;;3.80;99.90;;;;;;4901236;29;20111;-90
2021/03/16 05:37:57;;;;;;;9.27;2.75;;;3.70;99.90;;;;;;4901322;29;20052;-91
2021/03/16 05:40:24;;;;;;;14.02;2.78;;;3.80;99.90;;;;;;4901301;29;20024;-90
2021/03/16 05:42:51;;;;;;;11.10;2.60;;;3.80;99.90;;;;;;4901268;29;20388;-90
2021/03/16 05:45:17;;;;;;;9.32;2.45;;;3.80;99.90;;;;;;4901358;29;20025;-90
2021/03/16 05:47:46;;;;;;;9.02;2.97;;;3.90;99.90;;;;;;4901052;29;20444;-90
2021/03/16 05:50:13;;;;;;;8.80;2.55;;;3.90;99.90;;;;;;4918085;29;20036;-89
2021/03/16 05:52:39;;;;;;;7.07;2.20;;;3.90;99.90;;;;;;4901393;29;20397;-90
2021/03/16 05:55:07;;;;;;;8.77;2.50;;;4.00;99.90;;;;;;4900949;29;20080;-90
2021/03/16 05:57:33;;;;;;;6.53;2.20;;;4.00;99.90;;;;;;4918183;29;20036;-89
2021/03/16 05:59:59;;;;;;;10.73;2.42;;;4.00;99.90;;;;;;4901295;29;20028;-90
2021/03/16 06:02:25;;;;;;;9.32;2.45;;;4.00;99.90;;;;;;4901527;29;20034;-89
2021/03/16 06:04:51;;;;;;;12.98;2.95;;;3.90;99.90;;;;;;4901502;29;20076;-90
2021/03/16 06:07:49;;;;;;;15.07;2.67;;;3.90;99.90;;;;;;4918853;29;20028;-90
2021/03/16 06:10:41;;;;;;;17.85;3.15;;;3.90;99.90;;;;;;4892625;29;20036;-90
2021/03/16 06:13:17;;;;;;;13.40;2.50;;;3.90;99.90;;;;;;4860844;29;20038;-90
2021/03/16 06:16:34;;;;;;;7.10;2.17;;;3.90;99.90;;;;;;4901972;29;20052;-90
2021/03/16 06:19:41;;;;;;;14.77;2.55;;;3.90;99.90;;;;;;4850890;29;20255;-90
2021/03/16 06:29:35;;;;;;;10.07;2.63;;;4.00;99.90;;;;;;4880182;29;20059;-89
2021/03/16 06:32:33;;;;;;;10.05;2.80;;;4.00;99.90;;;;;;4900965;29;20060;-89
2021/03/16 06:35:01;;;;;;;12.10;2.78;;;4.00;99.90;;;;;;4900995;29;20032;-90
2021/03/16 06:37:26;;;;;;;9.57;2.83;;;3.90;99.90;;;;;;4901719;29;20028;-89
2021/03/16 06:39:54;;;;;;;15.13;2.83;;;4.00;99.90;;;;;;4900413;29;20088;-89
2021/03/16 06:42:26;;;;;;;15.45;3.42;;;4.00;99.90;;;;;;4901462;29;20413;-89
2021/03/16 06:45:07;;;;;;;8.88;2.63;;;4.00;99.90;;;;;;4900794;29;20401;-89
2021/03/16 06:47:42;;;;;;;17.10;3.92;;;4.00;99.90;;;;;;4903254;29;20028;-89
2021/03/16 07:08:09;;;;;;;12.90;3.03;;;4.20;99.90;;;;;;4826683;29;20149;-89
2021/03/16 07:11:50;;;;;;;10.98;2.95;;;4.20;99.90;;;;;;4878866;29;20070;-89
2021/03/16 07:24:13;;;;;;;9.68;2.40;;;4.10;99.90;;;;;;4902480;29;20527;-89
2021/03/16 07:26:55;;;;;;;14.18;2.80;;;4.00;99.90;;;;;;4886174;29;20041;-90
2021/03/16 07:29:21;;;;;;;13.15;2.75;;;4.10;99.90;;;;;;4885007;29;20049;-88
2021/03/16 07:31:49;;;;;;;8.15;2.72;;;4.10;99.90;;;;;;4885219;29;20029;-87
2021/03/16 07:34:19;;;;;;;12.20;2.90;;;4.10;99.90;;;;;;4885724;29;20025;-89
2021/03/16 07:36:46;;;;;;;7.05;2.53;;;4.10;99.90;;;;;;4885035;29;20028;-89
2021/03/16 07:39:18;;;;;;;8.52;2.40;;;4.10;99.90;;;;;;4884913;29;20032;-89
2021/03/16 07:41:44;;;;;;;11.57;2.70;;;4.10;99.90;;;;;;4885108;29;20176;-89
2021/03/16 07:44:12;;;;;;;11.55;2.75;;;4.30;99.90;;;;;;4884867;29;20540;-89
2021/03/16 07:54:07;;;;;;;10.60;3.15;;;4.50;99.90;;;;;;4902105;29;20028;-90
2021/03/16 08:00:07;;;;;;;7.47;2.67;;;4.60;99.90;;;;;;4920349;29;20055;-89
2021/03/16 08:03:12;;;;;;;8.98;2.42;;;4.70;99.90;;;;;;4903080;29;20115;-90
2021/03/16 08:06:04;;;;;;;13.05;3.17;;;4.70;99.90;;;;;;4900039;29;20036;-89
2021/03/16 08:25:19;;;;;;;10.45;2.80;;;4.90;99.90;;;;;;4825207;29;20083;-89
2021/03/16 08:34:28;;;;;;;6.55;2.50;;;4.90;99.90;;;;;;4807626;29;20069;-89
2021/03/16 08:37:04;;;;;;;10.40;2.50;;;5.00;99.90;;;;;;4824481;29;20044;-89
2021/03/16 08:40:00;;;;;;;12.50;2.30;;;5.00;99.90;;;;;;4843748;29;20506;-89
2021/03/16 09:07:59;;;;;;;;;;;;;;;;;;;;;
2021/03/16 09:56:40;;;;;;;;;;;;;;;;;;;;;
2021/03/16 10:35:41;;;;;;;16.17;3.90;;;6.10;99.90;;;;;;4856950;29;20039;-89
2021/03/16 10:38:08;;;;;;;8.65;2.92;;;6.10;99.90;;;;;;4905264;29;20036;-90
2021/03/16 10:40:35;;;;;;;9.18;2.70;;;6.10;99.90;;;;;;4905401;29;20024;-90
2021/03/16 10:43:02;;;;;;;11.52;3.05;;;6.10;99.90;;;;;;4904676;29;20028;-90
2021/03/16 10:45:29;;;;;;;11.55;2.72;;;6.20;99.90;;;;;;4905115;29;20046;-90
2021/03/16 10:47:55;;;;;;;9.25;2.65;;;6.30;99.90;;;;;;4904974;29;20055;-89
2021/03/16 10:50:24;;;;;;;12.25;2.45;;;6.60;99.90;;;;;;4903898;29;20119;-87
2021/03/16 10:52:55;;;;;;;13.18;2.85;;;6.70;99.90;;;;;;4903863;29;20118;-87
2021/03/16 10:55:31;;;;;;;19.45;3.33;;;6.70;99.90;;;;;;4903628;29;20382;-87
2021/03/16 11:01:19;;;;;;;8.13;2.70;;;6.70;99.90;;;;;;4920774;29;20539;-87
2021/03/16 11:03:45;;;;;;;8.82;2.72;;;6.70;99.90;;;;;;4920914;29;20065;-87
2021/03/16 11:06:10;;;;;;;12.43;3.25;;;6.60;99.90;;;;;;4903544;29;20059;-86
2021/03/16 11:08:36;;;;;;;12.65;3.17;;;6.40;99.90;;;;;;4920392;29;20032;-87
2021/03/16 11:11:02;;;;;;;9.45;3.22;;;6.30;99.90;;;;;;4920331;29;20528;-87
2021/03/16 11:13:28;;;;;;;8.32;2.33;;;6.20;99.90;;;;;;4903301;29;20036;-86
2021/03/16 11:15:53;;;;;;;8.88;2.55;;;6.10;99.90;;;;;;4903373;29;20032;-87
2021/03/16 11:18:19;;;;;;;7.93;2.30;;;6.00;99.90;;;;;;4903220;29;20032;-86
2021/03/16 11:20:45;;;;;;;7.35;2.60;;;5.80;99.90;;;;;;4903233;29;20051;-87
2021/03/16 11:23:11;;;;;;;6.57;2.40;;;5.80;99.90;;;;;;4920105;29;20056;-87
2021/03/16 11:25:37;;;;;;;6.90;2.13;;;5.80;99.90;;;;;;4902877;29;20476;-86
2021/03/16 11:28:03;;;;;;;15.82;2.33;;;5.80;99.90;;;;;;4903140;29;20493;-87
2021/03/16 11:30:31;;;;;;;7.95;2.78;;;5.90;99.90;;;;;;4920014;29;20548;-87
2021/03/16 11:32:57;;;;;;;6.07;2.42;;;5.80;99.90;;;;;;4902487;29;20030;-86
2021/03/16 11:35:22;;;;;;;8.80;2.20;;;5.70;99.90;;;;;;4902943;29;20119;-86
2021/03/16 11:37:48;;;;;;;12.52;2.47;;;5.70;99.90;;;;;;4902800;29;20024;-86
2021/03/16 11:40:14;;;;;;;8.18;2.33;;;5.80;99.90;;;;;;4920328;29;20055;-87
2021/03/16 11:42:40;;;;;;;9.52;2.90;;;5.80;99.90;;;;;;4902881;29;20040;-86
2021/03/16 11:45:06;;;;;;;14.70;2.20;;;5.90;99.90;;;;;;4902973;29;20020;-87
2021/03/16 11:47:35;;;;;;;5.05;2.22;;;5.80;99.90;;;;;;4902603;29;20115;-87
2021/03/16 11:50:31;;;;;;;7.88;1.88;;;5.90;99.90;;;;;;4903398;29;20028;-87
2021/03/16 11:53:03;;;;;;;8.48;2.40;;;6.10;99.90;;;;;;4920221;29;20373;-86
2021/03/16 11:55:29;;;;;;;10.68;2.72;;;6.30;99.90;;;;;;4903357;29;20028;-87
2021/03/16 11:58:00;;;;;;;9.70;2.58;;;6.50;99.90;;;;;;4902697;29;20062;-87
2021/03/16 12:00:29;;;;;;;9.98;2.38;;;6.80;99.90;;;;;;4901655;29;20123;-86
2021/03/16 12:03:00;;;;;;;9.27;2.42;;;6.90;99.90;;;;;;4903289;29;20043;-87
2021/03/16 12:05:25;;;;;;;6.97;2.35;;;6.60;99.90;;;;;;4902757;29;20434;-87
2021/03/16 12:07:51;;;;;;;8.88;2.38;;;6.30;99.90;;;;;;4902560;29;20024;-86
2021/03/16 12:10:17;;;;;;;10.13;2.10;;;6.30;99.90;;;;;;4919340;29;20028;-87
2021/03/16 12:12:46;;;;;;;5.85;1.60;;;6.30;99.90;;;;;;4902335;29;20028;-87
2021/03/16 12:15:17;;;;;;;10.85;2.13;;;6.10;99.90;;;;;;4903484;29;20024;-86
2021/03/16 12:17:49;;;;;;;8.02;2.42;;;6.20;99.90;;;;;;4919493;29;20028;-87
2021/03/16 12:20:15;;;;;;;10.10;2.10;;;6.00;99.90;;;;;;4903155;29;20039;-86
2021/03/16 12:22:43;;;;;;;9.43;1.88;;;6.00;99.90;;;;;;4902290;29;20528;-87
2021/03/16 12:25:12;;;;;;;9.93;2.22;;;5.90;99.90;;;;;;4901584;29;20047;-87
2021/03/16 12:27:53;;;;;;;6.32;1.83;;;6.00;99.90;;;;;;4902389;29;20476;-86
2021/03/16 12:30:19;;;;;;;6.07;1.90;;;6.00;99.90;;;;;;4902461;29;20028;-87
2021/03/16 12:32:45;;;;;;;10.18;2.20;;;6.30;99.90;;;;;;4902060;29;20051;-87
2021/03/16 12:35:14;;;;;;;8.60;1.75;;;6.50;99.90;;;;;;4902553;29;20461;-86
2021/03/16 12:37:44;;;;;;;12.20;2.17;;;6.60;99.90;;;;;;4901660;29;20039;-86
2021/03/16 12:40:11;;;;;;;10.50;2.25;;;7.00;99.90;;;;;;4901678;29;20024;-86
2021/03/16 12:42:40;;;;;;;10.73;2.22;;;7.10;99.90;;;;;;4901293;29;20039;-86
2021/03/16 12:48:12;;;;;;;9.65;2.05;;;8.10;99.90;;;;;;4905298;29;20028;-87
2021/03/16 12:50:44;;;;;;;6.50;1.75;;;7.70;99.90;;;;;;4902050;29;20091;-86
2021/03/16 12:53:19;;;;;;;6.85;1.88;;;7.50;99.90;;;;;;4901100;29;20042;-86
2021/03/16 12:55:45;;;;;;;9.13;2.20;;;7.20;99.90;;;;;;4901998;29;20039;-87
2021/03/16 12:58:13;;;;;;;11.00;1.90;;;6.70;99.90;;;;;;4901603;29;20492;-87
2021/03/16 13:00:45;;;;;;;7.45;1.80;;;6.70;99.90;;;;;;4901697;29;20024;-87
2021/03/16 13:03:11;;;;;;;10.30;2.10;;;7.00;99.90;;;;;;4902043;29;20028;-87
2021/03/16 13:05:37;;;;;;;13.35;2.50;;;7.00;99.90;;;;;;4901487;29;20362;-87
2021/03/16 13:08:02;;;;;;;5.60;1.90;;;7.10;99.90;;;;;;4901142;29;20051;-87
2021/03/16 13:10:29;;;;;;;8.15;1.85;;;7.20;99.90;;;;;;4900867;29;20025;-87
2021/03/16 13:12:57;;;;;;;9.27;2.13;;;7.10;99.90;;;;;;4901788;29;20059;-87
2021/03/16 13:15:23;;;;;;;9.15;2.47;;;6.90;99.90;;;;;;4901190;29;20127;-86
2021/03/16 13:17:51;;;;;;;9.00;1.95;;;6.90;99.90;;;;;;4901287;29;20119;-87
2021/03/16 13:20:17;;;;;;;6.85;1.70;;;6.70;99.90;;;;;;4901280;29;20020;-86
2021/03/16 13:22:43;;;;;;;7.50;2.25;;;6.50;99.90;;;;;;4901172;29;20119;-87
2021/03/16 13:25:19;;;;;;;7.47;2.80;;;6.30;99.90;;;;;;4900857;29;20052;-87
2021/03/16 13:27:45;;;;;;;10.95;2.50;;;6.20;99.90;;;;;;4901156;29;20028;-87
2021/03/16 13:30:12;;;;;;;12.02;2.80;;;6.30;99.90;;;;;;4901692;29;20032;-86
2021/03/16 13:33:03;;;;;;;10.00;2.42;;;6.30;99.90;;;;;;4901485;29;20035;-88
2021/03/16 13:35:29;;;;;;;8.60;1.85;;;6.50;99.90;;;;;;4901111;29;20075;-85
2021/03/16 13:37:58;;;;;;;7.65;2.00;;;6.50;99.90;;;;;;4901577;29;20032;-87
2021/03/16 13:40:27;;;;;;;10.65;2.00;;;6.30;99.90;;;;;;4901714;29;20464;-87
2021/03/16 13:42:53;;;;;;;8.82;1.63;;;6.40;99.90;;;;;;4901488;29;20083;-87
2021/03/16 13:45:53;;;;;;;6.75;1.70;;;6.40;99.90;;;;;;4900873;29;20024;-87
2021/03/16 13:48:22;;;;;;;5.22;1.48;;;6.50;99.90;;;;;;4901466;29;20107;-87
2021/03/16 13:50:50;;;;;;;4.43;1.33;;;6.60;99.90;;;;;;4900712;29;20043;-88
2021/03/16 13:59:28;;;;;;;11.00;2.92;;;9.50;99.90;;;;;;4918642;29;20035;-88
2021/03/16 14:01:54;;;;;;;5.72;1.70;;;10.20;99.90;;;;;;4901544;29;20075;-87
2021/03/16 14:04:20;;;;;;;7.18;1.58;;;9.40;99.90;;;;;;4901789;29;20476;-88
2021/03/16 14:06:46;;;;;;;4.55;1.98;;;8.80;99.90;;;;;;4901809;29;20026;-88
2021/03/16 14:09:17;;;;;;;7.53;1.52;;;8.30;99.90;;;;;;4902512;29;20373;-88
2021/03/16 14:11:43;;;;;;;9.50;1.75;;;8.00;99.90;;;;;;4918715;29;20052;-88
2021/03/16 14:14:09;;;;;;;3.17;1.08;;;8.10;99.90;;;;;;4901777;29;20163;-88
2021/03/16 14:16:34;;;;;;;5.78;1.50;;;8.30;99.90;;;;;;4901572;29;20055;-88
2021/03/16 14:19:00;;;;;;;6.57;1.50;;;8.20;99.90;;;;;;4901013;29;20089;-88
2021/03/16 14:21:55;;;;;;;4.80;1.40;;;9.20;99.90;;;;;;4901471;29;20028;-88
2021/03/16 14:24:23;;;;;;;5.78;1.20;;;10.80;99.90;;;;;;4900298;29;20040;-88
2021/03/16 14:26:53;;;;;;;4.95;1.30;;;12.00;99.90;;;;;;4901135;29;20119;-87
2021/03/16 14:29:22;;;;;;;8.40;1.50;;;12.30;96.30;;;;;;4900836;29;20032;-88
2021/03/16 14:31:51;;;;;;;7.10;1.60;;;11.40;96.50;;;;;;4901115;29;20032;-88
2021/03/16 14:34:26;;;;;;;8.18;1.90;;;10.50;97.90;;;;;;4901425;29;20032;-88
2021/03/16 14:36:55;;;;;;;5.70;1.50;;;9.40;99.90;;;;;;4903735;29;20031;-88
2021/03/16 14:39:21;;;;;;;9.60;1.52;;;8.80;99.90;;;;;;4901864;29;20036;-87
2021/03/16 14:41:49;;;;;;;8.63;1.77;;;8.20;99.90;;;;;;4902073;29;20457;-89
2021/03/16 14:44:15;;;;;;;9.02;2.03;;;7.80;99.90;;;;;;4901655;29;20031;-88
2021/03/16 14:46:41;;;;;;;8.48;1.73;;;7.60;99.90;;;;;;4901849;29;20028;-88
2021/03/16 14:49:06;;;;;;;9.88;2.10;;;7.30;99.90;;;;;;4914898;29;20056;-87
2021/03/16 14:51:32;;;;;;;7.30;1.80;;;7.10;99.90;;;;;;4915892;29;20044;-87
2021/03/16 14:53:58;;;;;;;4.18;1.60;;;7.30;99.90;;;;;;4913858;29;20453;-87
2021/03/16 14:56:24;;;;;;;6.70;1.58;;;7.80;99.90;;;;;;4913419;29;20066;-87
2021/03/16 14:58:51;;;;;;;13.75;3.72;;;7.90;99.90;;;;;;4929668;29;20040;-87
2021/03/16 15:01:17;;;;;;;5.65;1.65;;;8.10;99.90;;;;;;4911600;29;20095;-87
2021/03/16 15:03:43;;;;;;;8.80;1.90;;;8.20;99.90;;;;;;4930764;29;20036;-87
2021/03/16 15:06:09;;;;;;;7.22;2.88;;;8.10;99.90;;;;;;4906806;29;20028;-89
2021/03/16 15:08:35;;;;;;;8.93;2.53;;;7.70;99.90;;;;;;4902551;29;20028;-88
2021/03/16 15:11:02;;;;;;;6.35;1.80;;;7.30;99.90;;;;;;4920726;29;20056;-88
2021/03/16 15:13:28;;;;;;;7.72;2.60;;;7.20;99.90;;;;;;4903498;29;20032;-87
2021/03/16 15:15:54;;;;;;;6.60;2.20;;;6.90;99.90;;;;;;4903442;29;20036;-87
2021/03/16 15:18:19;;;;;;;6.45;2.30;;;6.60;99.90;;;;;;4903385;29;20503;-88
2021/03/16 15:20:45;;;;;;;4.30;1.95;;;6.60;99.90;;;;;;4903334;29;20024;-88
2021/03/16 15:23:12;;;;;;;8.40;2.38;;;6.50;99.90;;;;;;4903348;29;20028;-87
2021/03/16 15:25:38;;;;;;;8.32;1.88;;;6.30;99.90;;;;;;4903124;29;20048;-88
2021/03/16 15:28:04;;;;;;;7.70;2.42;;;6.20;99.90;;;;;;4903298;29;20032;-88
2021/03/16 15:30:30;;;;;;;9.60;2.42;;;6.00;99.90;;;;;;4903108;29;20063;-87
2021/03/16 15:32:55;;;;;;;7.68;2.30;;;6.00;99.90;;;;;;4903035;29;20040;-88
2021/03/16 15:35:21;;;;;;;7.88;2.25;;;5.80;99.90;;;;;;4920154;29;20032;-87
2021/03/16 15:37:47;;;;;;;6.85;2.30;;;5.70;99.90;;;;;;4902893;29;20497;-87
2021/03/16 15:40:13;;;;;;;12.55;2.90;;;5.70;99.90;;;;;;4902822;29;20481;-87
2021/03/16 15:42:42;;;;;;;4.95;2.05;;;5.70;99.90;;;;;;4921301;29;20432;-87
2021/03/16 15:45:08;;;;;;;7.60;2.20;;;5.70;99.90;;;;;;4903879;29;20035;-88
2021/03/16 15:47:34;;;;;;;6.07;2.10;;;5.70;99.90;;;;;;4903745;29;20111;-88
2021/03/16 15:49:59;;;;;;;4.45;2.25;;;5.70;99.90;;;;;;4903490;29;20080;-88
2021/03/16 15:52:26;;;;;;;7.10;2.45;;;5.70;99.90;;;;;;4903509;29;20388;-87
2021/03/16 15:54:51;;;;;;;8.52;3.55;;;5.70;99.90;;;;;;4903124;29;20024;-87
2021/03/16 15:57:17;;;;;;;6.95;2.30;;;5.60;99.90;;;;;;4903213;29;20116;-87
2021/03/16 15:59:44;;;;;;;11.07;2.60;;;5.60;99.90;;;;;;4903548;29;20050;-86
2021/03/16 16:02:10;;;;;;;10.57;2.90;;;5.60;99.90;;;;;;4903406;29;20079;-87
2021/03/16 16:04:36;;;;;;;7.28;2.88;;;5.50;99.90;;;;;;4903203;29;20024;-88
2021/03/16 16:07:02;;;;;;;13.02;3.20;;;5.40;99.90;;;;;;4903127;29;20074;-87
2021/03/16 16:09:29;;;;;;;8.00;2.70;;;5.20;99.90;;;;;;4903257;29;20396;-88
2021/03/16 16:11:56;;;;;;;13.60;3.22;;;5.10;99.90;;;;;;4903315;29;20032;-88
2021/03/16 16:14:21;;;;;;;6.75;3.17;;;5.10;99.90;;;;;;4903146;29;20028;-87